Nearby METAR Reports

 

ELLX - Luxembourg (aut), Luxembourg
Distance from station: NNE 36km
Updated: 30/11/2020 18:50
Mostly cloudy
Mostly cloudy
 Wind from SW
Wind: SW 13 km/h
Temperature: 0°C
Wind Chill: -4°C
Dew Point: -3°C
Humidity: 80%
Barometer: 1022 hPa
Clouds: Mostly cloudy
Visibility: 7 km
Cloud details: Partly cloudy 853 m
Mostly cloudy 1524 m
2020/11/30 17:50 ELLX 301750Z 23007KT 7000 SCT028 BKN050 00/M03 Q1022 TEMPO -FZRA BKN012
LFJL - Metz-Nancy-Lorra, France
Distance from station: SSE 41km
Updated: 30/11/2020 19:00
Mist, Overcast
Mist, Overcast
 Wind from SW
Wind: SW 17 km/h
Temperature: -2°C
Wind Chill: -7°C
Dew Point: -3°C
Humidity: 93%
Barometer: 1024 hPa
Summary: Mist
Clouds: Overcast
Visibility: 4 km
Cloud details: Overcast 91 m
2020/11/30 18:00 LFJL 301800Z AUTO 22009KT 3800 BR OVC003 M02/M03 Q1024 BECMG 6000 -RA BKN045
 
LFSN - Nancy/Essey, France
Distance from station: S 73km
Updated: 30/11/2020 19:00
Overcast
Overcast
 Wind from SSW
Wind: SSW 7 km/h
Temperature: -1°C
Wind Chill: -4°C
Dew Point: -2°C
Humidity: 93%
Barometer: 1025 hPa
Clouds: Overcast
Visibility: 6 km
Cloud details: Overcast 244 m
2020/11/30 18:00 LFSN 301800Z AUTO 21004KT 180V250 6000 OVC008 M01/M02 Q1025
EDDR - Saarbruecken, Germany
Distance from station: E 74km
Updated: 30/11/2020 19:20
Freezing fog, Overcast
Freezing fog, Overcast
 Wind from SE
Wind: SE 17 km/h
Temperature: -3°C
Wind Chill: -8°C
Dew Point: -3°C
Humidity: 100%
Barometer: 1023 hPa
Summary: Freezing Fog
Clouds: Overcast
Visibility: 1 km
Cloud details: Partly cloudy 30 m
Overcast 61 m
2020/11/30 18:20 EDDR 301820Z 13009KT 100V160 0900 R27/P2000N FZFG SCT001 OVC002 M03/M03 Q1023 NOSIG
 
LFSO - Nancy/Ochey (faf, France
Distance from station: S 84km
Updated: 30/11/2020 19:00
Mist, Overcast
Mist, Overcast
 Wind from SW
Wind: SW 11 km/h
Temperature: -2°C
Wind Chill: -6°C
Dew Point: -3°C
Humidity: 93%
Barometer: 1024 hPa
Summary: Mist
Clouds: Overcast
Visibility: 5 km
Cloud details: Overcast 122 m
2020/11/30 18:00 LFSO 301800Z AUTO 22006KT 4500 BR OVC004 M02/M03 Q1024
ETAD - Spangdahlem (usa, Germany
Distance from station: NNE 86km
Updated: 30/11/2020 19:11
Light rain, Overcast
Light rain, Overcast
 Wind from SSW
Wind: SSW 17 km/h, Gust: 30 km/h
Temperature: 0°C
Wind Chill: -4°C
Dew Point: -2°C
Humidity: 87%
Barometer: 1020.7 hPa
Summary: Light rain
Clouds: Overcast
Visibility: 10 km
Cloud details: Overcast 518 m
2020/11/30 18:11 ETAD 301811Z AUTO 21009G16KT 9999 -RA OVC017 00/M02 A3014 RMK AO2 RAB11 SLP222 $